sensor_id;sensor_type;location;lat;lon;timestamp;P1;durP1;ratioP1;P2;durP2;ratioP2
51286;SDS011;37364;46.974;18.916;2023-05-07T00:00:32;50.38;;;28.02;;
51286;SDS011;37364;46.974;18.916;2023-05-07T00:03:03;37.92;;;27.95;;
51286;SDS011;37364;46.974;18.916;2023-05-07T00:05:34;37.92;;;24.80;;
51286;SDS011;37364;46.974;18.916;2023-05-07T00:08:05;25.95;;;21.63;;
51286;SDS011;37364;46.974;18.916;2023-05-07T00:10:35;27.38;;;20.35;;
51286;SDS011;37364;46.974;18.916;2023-05-07T00:13:08;26.35;;;20.98;;
51286;SDS011;37364;46.974;18.916;2023-05-07T00:15:38;33.28;;;21.27;;
51286;SDS011;37364;46.974;18.916;2023-05-07T00:18:09;29.58;;;20.52;;
51286;SDS011;37364;46.974;18.916;2023-05-07T00:20:39;30.65;;;21.50;;
51286;SDS011;37364;46.974;18.916;2023-05-07T00:23:09;27.77;;;20.95;;
51286;SDS011;37364;46.974;18.916;2023-05-07T00:25:40;33.67;;;21.45;;
51286;SDS011;37364;46.974;18.916;2023-05-07T00:28:13;30.05;;;21.55;;
51286;SDS011;37364;46.974;18.916;2023-05-07T00:30:43;27.48;;;20.90;;
51286;SDS011;37364;46.974;18.916;2023-05-07T00:33:15;24.10;;;20.52;;
51286;SDS011;37364;46.974;18.916;2023-05-07T00:35:47;33.70;;;21.13;;
51286;SDS011;37364;46.974;18.916;2023-05-07T00:38:17;22.88;;;18.95;;
51286;SDS011;37364;46.974;18.916;2023-05-07T00:40:47;26.73;;;18.65;;
51286;SDS011;37364;46.974;18.916;2023-05-07T00:43:20;25.13;;;19.55;;
51286;SDS011;37364;46.974;18.916;2023-05-07T00:45:51;21.60;;;18.03;;
51286;SDS011;37364;46.974;18.916;2023-05-07T00:48:22;24.67;;;18.23;;
51286;SDS011;37364;46.974;18.916;2023-05-07T00:50:52;22.85;;;19.35;;
51286;SDS011;37364;46.974;18.916;2023-05-07T00:53:23;24.48;;;20.00;;
51286;SDS011;37364;46.974;18.916;2023-05-07T00:55:54;39.08;;;25.85;;
51286;SDS011;37364;46.974;18.916;2023-05-07T00:58:30;32.78;;;23.38;;
51286;SDS011;37364;46.974;18.916;2023-05-07T01:01:00;48.80;;;29.20;;
51286;SDS011;37364;46.974;18.916;2023-05-07T01:03:32;32.15;;;23.50;;
51286;SDS011;37364;46.974;18.916;2023-05-07T01:06:05;36.80;;;21.25;;
51286;SDS011;37364;46.974;18.916;2023-05-07T01:08:40;24.13;;;21.52;;
51286;SDS011;37364;46.974;18.916;2023-05-07T01:11:11;24.00;;;19.98;;
51286;SDS011;37364;46.974;18.916;2023-05-07T01:13:44;23.83;;;19.70;;
51286;SDS011;37364;46.974;18.916;2023-05-07T01:16:16;23.63;;;19.48;;
51286;SDS011;37364;46.974;18.916;2023-05-07T01:18:47;25.50;;;19.92;;
51286;SDS011;37364;46.974;18.916;2023-05-07T01:21:18;26.15;;;21.13;;
51286;SDS011;37364;46.974;18.916;2023-05-07T01:23:59;24.33;;;21.10;;
51286;SDS011;37364;46.974;18.916;2023-05-07T01:26:32;34.60;;;24.88;;
51286;SDS011;37364;46.974;18.916;2023-05-07T01:29:02;45.53;;;27.33;;
51286;SDS011;37364;46.974;18.916;2023-05-07T01:31:33;36.78;;;25.85;;
51286;SDS011;37364;46.974;18.916;2023-05-07T01:34:04;29.98;;;23.42;;
51286;SDS011;37364;46.974;18.916;2023-05-07T01:36:36;37.72;;;21.88;;
51286;SDS011;37364;46.974;18.916;2023-05-07T01:39:10;29.30;;;22.02;;
51286;SDS011;37364;46.974;18.916;2023-05-07T01:44:12;29.45;;;24.02;;
51286;SDS011;37364;46.974;18.916;2023-05-07T01:46:44;27.05;;;22.13;;
51286;SDS011;37364;46.974;18.916;2023-05-07T01:49:15;28.17;;;22.40;;
51286;SDS011;37364;46.974;18.916;2023-05-07T01:51:46;29.10;;;22.17;;
51286;SDS011;37364;46.974;18.916;2023-05-07T01:54:18;27.52;;;23.15;;
51286;SDS011;37364;46.974;18.916;2023-05-07T01:56:50;35.20;;;21.55;;
51286;SDS011;37364;46.974;18.916;2023-05-07T01:59:20;38.25;;;25.23;;
51286;SDS011;37364;46.974;18.916;2023-05-07T02:01:50;32.38;;;25.50;;
51286;SDS011;37364;46.974;18.916;2023-05-07T02:04:22;36.45;;;26.70;;
51286;SDS011;37364;46.974;18.916;2023-05-07T02:06:53;36.17;;;25.60;;
51286;SDS011;37364;46.974;18.916;2023-05-07T02:09:25;36.17;;;26.35;;
51286;SDS011;37364;46.974;18.916;2023-05-07T02:11:56;29.17;;;24.88;;
51286;SDS011;37364;46.974;18.916;2023-05-07T02:14:26;32.88;;;25.42;;
51286;SDS011;37364;46.974;18.916;2023-05-07T02:16:56;31.15;;;23.98;;
51286;SDS011;37364;46.974;18.916;2023-05-07T02:19:27;33.17;;;24.08;;
51286;SDS011;37364;46.974;18.916;2023-05-07T02:21:57;41.63;;;24.85;;
51286;SDS011;37364;46.974;18.916;2023-05-07T02:24:32;37.50;;;25.75;;
51286;SDS011;37364;46.974;18.916;2023-05-07T02:27:02;33.80;;;25.23;;
51286;SDS011;37364;46.974;18.916;2023-05-07T02:29:34;33.05;;;25.65;;
51286;SDS011;37364;46.974;18.916;2023-05-07T02:32:04;36.35;;;24.98;;
51286;SDS011;37364;46.974;18.916;2023-05-07T02:34:34;30.48;;;24.45;;
51286;SDS011;37364;46.974;18.916;2023-05-07T02:37:05;37.20;;;24.67;;
51286;SDS011;37364;46.974;18.916;2023-05-07T02:39:38;39.55;;;24.33;;
51286;SDS011;37364;46.974;18.916;2023-05-07T02:42:08;31.53;;;23.53;;
51286;SDS011;37364;46.974;18.916;2023-05-07T02:44:38;35.63;;;22.98;;
51286;SDS011;37364;46.974;18.916;2023-05-07T02:47:08;29.27;;;22.60;;
51286;SDS011;37364;46.974;18.916;2023-05-07T02:49:41;30.02;;;22.17;;
51286;SDS011;37364;46.974;18.916;2023-05-07T02:52:11;28.90;;;21.90;;
51286;SDS011;37364;46.974;18.916;2023-05-07T02:54:44;24.23;;;21.70;;
51286;SDS011;37364;46.974;18.916;2023-05-07T02:57:14;34.05;;;22.63;;
51286;SDS011;37364;46.974;18.916;2023-05-07T02:59:44;30.15;;;21.75;;
51286;SDS011;37364;46.974;18.916;2023-05-07T03:02:15;28.20;;;21.98;;
51286;SDS011;37364;46.974;18.916;2023-05-07T03:04:46;26.63;;;21.00;;
51286;SDS011;37364;46.974;18.916;2023-05-07T03:07:17;25.65;;;22.75;;
51286;SDS011;37364;46.974;18.916;2023-05-07T03:09:49;26.13;;;20.98;;
51286;SDS011;37364;46.974;18.916;2023-05-07T03:12:20;27.67;;;21.33;;
51286;SDS011;37364;46.974;18.916;2023-05-07T03:14:50;27.52;;;22.25;;
51286;SDS011;37364;46.974;18.916;2023-05-07T03:17:21;27.70;;;21.25;;
51286;SDS011;37364;46.974;18.916;2023-05-07T03:19:51;23.42;;;20.88;;
51286;SDS011;37364;46.974;18.916;2023-05-07T03:22:21;24.65;;;17.95;;
51286;SDS011;37364;46.974;18.916;2023-05-07T03:24:54;23.17;;;20.05;;
51286;SDS011;37364;46.974;18.916;2023-05-07T03:27:25;25.38;;;22.65;;
51286;SDS011;37364;46.974;18.916;2023-05-07T03:29:55;28.05;;;22.35;;
51286;SDS011;37364;46.974;18.916;2023-05-07T03:32:26;29.92;;;21.60;;
51286;SDS011;37364;46.974;18.916;2023-05-07T03:34:56;28.05;;;21.27;;
51286;SDS011;37364;46.974;18.916;2023-05-07T03:37:27;28.30;;;21.77;;
51286;SDS011;37364;46.974;18.916;2023-05-07T03:39:59;24.02;;;21.23;;
51286;SDS011;37364;46.974;18.916;2023-05-07T03:42:36;24.80;;;21.27;;
51286;SDS011;37364;46.974;18.916;2023-05-07T03:45:07;30.48;;;20.67;;
51286;SDS011;37364;46.974;18.916;2023-05-07T03:47:43;30.92;;;20.88;;
51286;SDS011;37364;46.974;18.916;2023-05-07T03:50:17;24.10;;;20.98;;
51286;SDS011;37364;46.974;18.916;2023-05-07T03:52:47;23.17;;;20.67;;
51286;SDS011;37364;46.974;18.916;2023-05-07T03:55:23;25.23;;;20.65;;
51286;SDS011;37364;46.974;18.916;2023-05-07T03:57:57;23.70;;;19.35;;
51286;SDS011;37364;46.974;18.916;2023-05-07T04:00:28;23.30;;;20.77;;
51286;SDS011;37364;46.974;18.916;2023-05-07T04:03:01;23.85;;;21.15;;
51286;SDS011;37364;46.974;18.916;2023-05-07T04:05:32;30.58;;;21.58;;
51286;SDS011;37364;46.974;18.916;2023-05-07T04:08:02;26.55;;;21.70;;
51286;SDS011;37364;46.974;18.916;2023-05-07T04:10:40;24.35;;;21.77;;
51286;SDS011;37364;46.974;18.916;2023-05-07T04:13:10;26.50;;;21.73;;
51286;SDS011;37364;46.974;18.916;2023-05-07T04:15:41;23.60;;;20.52;;
51286;SDS011;37364;46.974;18.916;2023-05-07T04:18:15;21.58;;;19.38;;
51286;SDS011;37364;46.974;18.916;2023-05-07T04:20:48;19.98;;;17.98;;
51286;SDS011;37364;46.974;18.916;2023-05-07T04:23:18;20.77;;;17.63;;
51286;SDS011;37364;46.974;18.916;2023-05-07T04:25:51;23.17;;;17.52;;
51286;SDS011;37364;46.974;18.916;2023-05-07T04:28:28;19.48;;;16.27;;
51286;SDS011;37364;46.974;18.916;2023-05-07T04:31:00;19.25;;;17.17;;
51286;SDS011;37364;46.974;18.916;2023-05-07T04:33:33;18.58;;;16.65;;
51286;SDS011;37364;46.974;18.916;2023-05-07T04:36:05;26.93;;;18.10;;
51286;SDS011;37364;46.974;18.916;2023-05-07T04:38:43;22.83;;;16.90;;
51286;SDS011;37364;46.974;18.916;2023-05-07T04:41:16;18.55;;;16.02;;
51286;SDS011;37364;46.974;18.916;2023-05-07T04:43:47;22.02;;;15.10;;
51286;SDS011;37364;46.974;18.916;2023-05-07T04:46:21;18.10;;;14.95;;
51286;SDS011;37364;46.974;18.916;2023-05-07T04:48:53;18.45;;;14.63;;
51286;SDS011;37364;46.974;18.916;2023-05-07T04:51:23;18.90;;;14.52;;
51286;SDS011;37364;46.974;18.916;2023-05-07T04:53:55;15.27;;;13.52;;
51286;SDS011;37364;46.974;18.916;2023-05-07T04:56:30;16.48;;;14.45;;
51286;SDS011;37364;46.974;18.916;2023-05-07T04:59:01;16.92;;;13.57;;
51286;SDS011;37364;46.974;18.916;2023-05-07T05:01:32;21.23;;;14.68;;
51286;SDS011;37364;46.974;18.916;2023-05-07T05:04:03;15.00;;;13.40;;
51286;SDS011;37364;46.974;18.916;2023-05-07T05:06:34;19.42;;;13.60;;
51286;SDS011;37364;46.974;18.916;2023-05-07T05:09:05;19.58;;;13.73;;
51286;SDS011;37364;46.974;18.916;2023-05-07T05:11:41;15.63;;;14.02;;
51286;SDS011;37364;46.974;18.916;2023-05-07T05:14:11;22.17;;;14.77;;
51286;SDS011;37364;46.974;18.916;2023-05-07T05:16:41;23.10;;;14.65;;
51286;SDS011;37364;46.974;18.916;2023-05-07T05:19:12;17.65;;;14.05;;
51286;SDS011;37364;46.974;18.916;2023-05-07T05:21:43;16.75;;;14.95;;
51286;SDS011;37364;46.974;18.916;2023-05-07T05:24:13;19.35;;;13.68;;
51286;SDS011;37364;46.974;18.916;2023-05-07T05:26:47;17.65;;;12.75;;
51286;SDS011;37364;46.974;18.916;2023-05-07T05:29:17;23.23;;;12.70;;
51286;SDS011;37364;46.974;18.916;2023-05-07T05:31:47;15.68;;;12.73;;
51286;SDS011;37364;46.974;18.916;2023-05-07T05:34:18;14.02;;;12.63;;
51286;SDS011;37364;46.974;18.916;2023-05-07T05:36:48;14.23;;;12.68;;
51286;SDS011;37364;46.974;18.916;2023-05-07T05:39:19;13.50;;;12.10;;
51286;SDS011;37364;46.974;18.916;2023-05-07T05:41:52;16.65;;;13.27;;
51286;SDS011;37364;46.974;18.916;2023-05-07T05:46:53;13.35;;;11.38;;
51286;SDS011;37364;46.974;18.916;2023-05-07T05:49:26;15.30;;;13.02;;
51286;SDS011;37364;46.974;18.916;2023-05-07T05:51:57;11.75;;;10.55;;
51286;SDS011;37364;46.974;18.916;2023-05-07T05:54:28;14.55;;;13.00;;
51286;SDS011;37364;46.974;18.916;2023-05-07T05:57:01;19.60;;;14.50;;
51286;SDS011;37364;46.974;18.916;2023-05-07T05:59:32;21.08;;;13.70;;
51286;SDS011;37364;46.974;18.916;2023-05-07T06:02:02;16.27;;;13.70;;
51286;SDS011;37364;46.974;18.916;2023-05-07T06:04:33;14.38;;;11.90;;
51286;SDS011;37364;46.974;18.916;2023-05-07T06:07:04;13.00;;;10.27;;
51286;SDS011;37364;46.974;18.916;2023-05-07T06:09:34;11.63;;;10.43;;
51286;SDS011;37364;46.974;18.916;2023-05-07T06:12:07;11.52;;;8.90;;
51286;SDS011;37364;46.974;18.916;2023-05-07T06:14:37;12.13;;;8.45;;
51286;SDS011;37364;46.974;18.916;2023-05-07T06:17:08;11.15;;;8.30;;
51286;SDS011;37364;46.974;18.916;2023-05-07T06:19:38;9.82;;;7.05;;
51286;SDS011;37364;46.974;18.916;2023-05-07T06:22:10;7.25;;;6.40;;
51286;SDS011;37364;46.974;18.916;2023-05-07T06:24:40;12.05;;;5.50;;
51286;SDS011;37364;46.974;18.916;2023-05-07T06:27:14;6.82;;;5.63;;
51286;SDS011;37364;46.974;18.916;2023-05-07T06:32:17;10.82;;;6.15;;
51286;SDS011;37364;46.974;18.916;2023-05-07T06:34:49;5.80;;;5.15;;
51286;SDS011;37364;46.974;18.916;2023-05-07T06:37:20;19.42;;;5.68;;
51286;SDS011;37364;46.974;18.916;2023-05-07T06:40:00;11.32;;;5.97;;
51286;SDS011;37364;46.974;18.916;2023-05-07T06:42:35;16.98;;;6.30;;
51286;SDS011;37364;46.974;18.916;2023-05-07T06:45:35;10.02;;;6.20;;
51286;SDS011;37364;46.974;18.916;2023-05-07T06:48:07;10.73;;;6.83;;
51286;SDS011;37364;46.974;18.916;2023-05-07T06:50:51;7.65;;;6.40;;
51286;SDS011;37364;46.974;18.916;2023-05-07T06:53:22;6.63;;;5.93;;
51286;SDS011;37364;46.974;18.916;2023-05-07T06:55:55;9.23;;;5.97;;
51286;SDS011;37364;46.974;18.916;2023-05-07T06:58:27;6.63;;;5.88;;
51286;SDS011;37364;46.974;18.916;2023-05-07T07:00:59;5.57;;;4.82;;
51286;SDS011;37364;46.974;18.916;2023-05-07T07:03:30;6.95;;;5.55;;
51286;SDS011;37364;46.974;18.916;2023-05-07T07:06:01;7.13;;;5.55;;
51286;SDS011;37364;46.974;18.916;2023-05-07T07:08:31;10.80;;;6.20;;
51286;SDS011;37364;46.974;18.916;2023-05-07T07:11:01;8.90;;;5.82;;
51286;SDS011;37364;46.974;18.916;2023-05-07T07:13:34;11.35;;;7.68;;
51286;SDS011;37364;46.974;18.916;2023-05-07T07:16:04;11.20;;;6.70;;
51286;SDS011;37364;46.974;18.916;2023-05-07T07:18:35;10.02;;;6.60;;
51286;SDS011;37364;46.974;18.916;2023-05-07T07:21:05;7.97;;;6.90;;
51286;SDS011;37364;46.974;18.916;2023-05-07T07:23:36;9.00;;;7.07;;
51286;SDS011;37364;46.974;18.916;2023-05-07T07:26:07;10.93;;;7.63;;
51286;SDS011;37364;46.974;18.916;2023-05-07T07:28:44;13.40;;;7.78;;
51286;SDS011;37364;46.974;18.916;2023-05-07T07:31:18;8.18;;;7.38;;
51286;SDS011;37364;46.974;18.916;2023-05-07T07:33:50;8.98;;;8.05;;
51286;SDS011;37364;46.974;18.916;2023-05-07T07:36:20;10.43;;;8.20;;
51286;SDS011;37364;46.974;18.916;2023-05-07T07:39:04;9.13;;;8.23;;
51286;SDS011;37364;46.974;18.916;2023-05-07T07:41:36;9.23;;;8.20;;
51286;SDS011;37364;46.974;18.916;2023-05-07T07:44:09;9.52;;;7.45;;
51286;SDS011;37364;46.974;18.916;2023-05-07T07:46:43;10.57;;;6.90;;
51286;SDS011;37364;46.974;18.916;2023-05-07T07:49:14;11.93;;;7.05;;
51286;SDS011;37364;46.974;18.916;2023-05-07T07:51:44;9.25;;;7.45;;
51286;SDS011;37364;46.974;18.916;2023-05-07T07:54:15;14.15;;;9.23;;
51286;SDS011;37364;46.974;18.916;2023-05-07T07:56:46;10.10;;;8.90;;
51286;SDS011;37364;46.974;18.916;2023-05-07T07:59:19;12.98;;;9.85;;
51286;SDS011;37364;46.974;18.916;2023-05-07T08:01:49;16.30;;;10.88;;
51286;SDS011;37364;46.974;18.916;2023-05-07T08:04:25;12.82;;;11.23;;
51286;SDS011;37364;46.974;18.916;2023-05-07T08:07:00;15.07;;;12.48;;
51286;SDS011;37364;46.974;18.916;2023-05-07T08:09:32;14.77;;;13.23;;
51286;SDS011;37364;46.974;18.916;2023-05-07T08:12:04;12.82;;;11.25;;
51286;SDS011;37364;46.974;18.916;2023-05-07T08:14:37;16.25;;;10.82;;
51286;SDS011;37364;46.974;18.916;2023-05-07T08:17:08;14.85;;;12.02;;
51286;SDS011;37364;46.974;18.916;2023-05-07T08:19:40;19.77;;;11.15;;
51286;SDS011;37364;46.974;18.916;2023-05-07T08:22:12;18.85;;;10.27;;
51286;SDS011;37364;46.974;18.916;2023-05-07T08:24:44;12.00;;;9.75;;
51286;SDS011;37364;46.974;18.916;2023-05-07T08:27:15;10.95;;;8.75;;
51286;SDS011;37364;46.974;18.916;2023-05-07T08:29:47;10.40;;;8.93;;
51286;SDS011;37364;46.974;18.916;2023-05-07T08:32:19;9.82;;;8.82;;
51286;SDS011;37364;46.974;18.916;2023-05-07T08:34:50;10.15;;;8.25;;
51286;SDS011;37364;46.974;18.916;2023-05-07T08:37:20;9.93;;;8.80;;
51286;SDS011;37364;46.974;18.916;2023-05-07T08:39:51;9.85;;;8.85;;
51286;SDS011;37364;46.974;18.916;2023-05-07T08:42:24;10.57;;;8.32;;
51286;SDS011;37364;46.974;18.916;2023-05-07T08:45:00;17.85;;;8.35;;
51286;SDS011;37364;46.974;18.916;2023-05-07T08:47:34;9.68;;;8.30;;
51286;SDS011;37364;46.974;18.916;2023-05-07T08:50:15;10.00;;;7.47;;
51286;SDS011;37364;46.974;18.916;2023-05-07T08:52:47;11.30;;;6.53;;
51286;SDS011;37364;46.974;18.916;2023-05-07T08:55:18;10.52;;;7.15;;
51286;SDS011;37364;46.974;18.916;2023-05-07T08:57:50;10.30;;;6.40;;
51286;SDS011;37364;46.974;18.916;2023-05-07T09:00:23;6.85;;;5.50;;
51286;SDS011;37364;46.974;18.916;2023-05-07T09:02:57;6.45;;;4.63;;
51286;SDS011;37364;46.974;18.916;2023-05-07T09:05:28;4.07;;;3.67;;
51286;SDS011;37364;46.974;18.916;2023-05-07T09:07:59;7.07;;;3.65;;
51286;SDS011;37364;46.974;18.916;2023-05-07T09:10:30;6.07;;;3.30;;
51286;SDS011;37364;46.974;18.916;2023-05-07T09:13:04;4.00;;;3.65;;
51286;SDS011;37364;46.974;18.916;2023-05-07T09:15:37;4.10;;;3.80;;
51286;SDS011;37364;46.974;18.916;2023-05-07T09:18:08;5.68;;;5.18;;
51286;SDS011;37364;46.974;18.916;2023-05-07T09:20:39;5.45;;;5.05;;
51286;SDS011;37364;46.974;18.916;2023-05-07T09:23:10;5.50;;;5.00;;
51286;SDS011;37364;46.974;18.916;2023-05-07T09:25:42;7.80;;;6.88;;
51286;SDS011;37364;46.974;18.916;2023-05-07T09:28:22;7.18;;;6.13;;
51286;SDS011;37364;46.974;18.916;2023-05-07T09:30:55;8.45;;;5.75;;
51286;SDS011;37364;46.974;18.916;2023-05-07T09:33:27;6.93;;;5.95;;
51286;SDS011;37364;46.974;18.916;2023-05-07T09:36:02;6.97;;;5.95;;
51286;SDS011;37364;46.974;18.916;2023-05-07T09:38:34;6.70;;;6.07;;
51286;SDS011;37364;46.974;18.916;2023-05-07T09:41:06;5.85;;;4.38;;
51286;SDS011;37364;46.974;18.916;2023-05-07T09:44:00;6.82;;;5.22;;
51286;SDS011;37364;46.974;18.916;2023-05-07T09:46:42;4.72;;;4.07;;
51286;SDS011;37364;46.974;18.916;2023-05-07T09:49:20;7.03;;;4.70;;
51286;SDS011;37364;46.974;18.916;2023-05-07T09:51:59;5.82;;;4.65;;
51286;SDS011;37364;46.974;18.916;2023-05-07T09:54:35;4.75;;;4.20;;
51286;SDS011;37364;46.974;18.916;2023-05-07T09:57:07;5.05;;;4.60;;
51286;SDS011;37364;46.974;18.916;2023-05-07T09:59:42;8.80;;;5.50;;
51286;SDS011;37364;46.974;18.916;2023-05-07T10:02:18;5.20;;;4.75;;
51286;SDS011;37364;46.974;18.916;2023-05-07T10:04:52;4.97;;;4.47;;
51286;SDS011;37364;46.974;18.916;2023-05-07T10:07:28;11.00;;;4.75;;
51286;SDS011;37364;46.974;18.916;2023-05-07T10:10:05;7.65;;;5.45;;
51286;SDS011;37364;46.974;18.916;2023-05-07T10:12:41;9.57;;;4.80;;
51286;SDS011;37364;46.974;18.916;2023-05-07T10:15:17;5.15;;;4.68;;
51286;SDS011;37364;46.974;18.916;2023-05-07T10:17:57;6.40;;;4.80;;
51286;SDS011;37364;46.974;18.916;2023-05-07T10:20:28;7.18;;;4.00;;
51286;SDS011;37364;46.974;18.916;2023-05-07T10:22:59;5.78;;;3.83;;
51286;SDS011;37364;46.974;18.916;2023-05-07T10:25:40;9.70;;;2.80;;
51286;SDS011;37364;46.974;18.916;2023-05-07T10:28:17;5.07;;;3.00;;
51286;SDS011;37364;46.974;18.916;2023-05-07T10:30:54;2.67;;;2.00;;
51286;SDS011;37364;46.974;18.916;2023-05-07T10:33:45;3.15;;;1.52;;
51286;SDS011;37364;46.974;18.916;2023-05-07T10:36:20;4.63;;;1.92;;
51286;SDS011;37364;46.974;18.916;2023-05-07T10:38:52;2.17;;;1.73;;
51286;SDS011;37364;46.974;18.916;2023-05-07T10:41:23;4.43;;;2.25;;
51286;SDS011;37364;46.974;18.916;2023-05-07T10:43:54;3.30;;;2.67;;
51286;SDS011;37364;46.974;18.916;2023-05-07T10:46:30;3.45;;;3.10;;
51286;SDS011;37364;46.974;18.916;2023-05-07T10:49:31;5.03;;;3.67;;
51286;SDS011;37364;46.974;18.916;2023-05-07T10:52:12;5.22;;;3.30;;
51286;SDS011;37364;46.974;18.916;2023-05-07T11:01:08;6.13;;;2.97;;
51286;SDS011;37364;46.974;18.916;2023-05-07T11:10:14;5.78;;;2.50;;
51286;SDS011;37364;46.974;18.916;2023-05-07T11:12:57;2.65;;;2.45;;
51286;SDS011;37364;46.974;18.916;2023-05-07T11:15:41;8.93;;;2.58;;
51286;SDS011;37364;46.974;18.916;2023-05-07T11:21:36;3.72;;;1.90;;
51286;SDS011;37364;46.974;18.916;2023-05-07T11:24:24;3.95;;;1.95;;
51286;SDS011;37364;46.974;18.916;2023-05-07T11:27:04;1.98;;;1.80;;
51286;SDS011;37364;46.974;18.916;2023-05-07T11:29:35;3.53;;;2.22;;
51286;SDS011;37364;46.974;18.916;2023-05-07T11:32:10;5.55;;;2.25;;
51286;SDS011;37364;46.974;18.916;2023-05-07T11:34:53;1.92;;;1.70;;
51286;SDS011;37364;46.974;18.916;2023-05-07T11:37:25;2.92;;;1.80;;
51286;SDS011;37364;46.974;18.916;2023-05-07T11:40:03;1.83;;;1.70;;
51286;SDS011;37364;46.974;18.916;2023-05-07T11:42:40;6.20;;;2.47;;
51286;SDS011;37364;46.974;18.916;2023-05-07T11:47:41;2.15;;;1.63;;
51286;SDS011;37364;46.974;18.916;2023-05-07T11:50:12;1.63;;;1.52;;
51286;SDS011;37364;46.974;18.916;2023-05-07T11:52:49;1.67;;;1.58;;
51286;SDS011;37364;46.974;18.916;2023-05-07T11:55:20;1.98;;;1.77;;
51286;SDS011;37364;46.974;18.916;2023-05-07T11:58:04;7.65;;;2.03;;
51286;SDS011;37364;46.974;18.916;2023-05-07T12:00:36;3.60;;;1.98;;
51286;SDS011;37364;46.974;18.916;2023-05-07T12:03:07;17.58;;;2.42;;
51286;SDS011;37364;46.974;18.916;2023-05-07T12:05:38;11.52;;;2.00;;
51286;SDS011;37364;46.974;18.916;2023-05-07T12:08:08;4.18;;;1.88;;
51286;SDS011;37364;46.974;18.916;2023-05-07T12:10:51;4.78;;;1.58;;
51286;SDS011;37364;46.974;18.916;2023-05-07T12:13:25;3.35;;;1.70;;
51286;SDS011;37364;46.974;18.916;2023-05-07T12:15:55;1.98;;;1.85;;
51286;SDS011;37364;46.974;18.916;2023-05-07T12:18:27;8.82;;;1.65;;
51286;SDS011;37364;46.974;18.916;2023-05-07T12:20:59;4.25;;;1.40;;
51286;SDS011;37364;46.974;18.916;2023-05-07T12:23:54;1.42;;;1.30;;
51286;SDS011;37364;46.974;18.916;2023-05-07T12:26:28;3.22;;;1.40;;
51286;SDS011;37364;46.974;18.916;2023-05-07T12:29:04;5.45;;;1.63;;
51286;SDS011;37364;46.974;18.916;2023-05-07T12:31:41;7.13;;;1.98;;
51286;SDS011;37364;46.974;18.916;2023-05-07T12:34:18;2.22;;;1.50;;
51286;SDS011;37364;46.974;18.916;2023-05-07T12:36:51;7.97;;;1.42;;
51286;SDS011;37364;46.974;18.916;2023-05-07T12:39:23;1.35;;;1.20;;
51286;SDS011;37364;46.974;18.916;2023-05-07T12:41:57;1.63;;;1.52;;
51286;SDS011;37364;46.974;18.916;2023-05-07T12:44:32;3.53;;;2.90;;
51286;SDS011;37364;46.974;18.916;2023-05-07T12:47:08;3.00;;;1.50;;
51286;SDS011;37364;46.974;18.916;2023-05-07T12:49:43;1.85;;;1.75;;
51286;SDS011;37364;46.974;18.916;2023-05-07T12:52:22;3.05;;;2.38;;
51286;SDS011;37364;46.974;18.916;2023-05-07T12:54:55;6.15;;;1.25;;
51286;SDS011;37364;46.974;18.916;2023-05-07T12:57:26;3.00;;;1.60;;
51286;SDS011;37364;46.974;18.916;2023-05-07T13:00:11;1.50;;;1.40;;
51286;SDS011;37364;46.974;18.916;2023-05-07T13:02:46;4.25;;;1.85;;
51286;SDS011;37364;46.974;18.916;2023-05-07T13:05:21;4.68;;;2.10;;
51286;SDS011;37364;46.974;18.916;2023-05-07T13:07:54;5.78;;;2.03;;
51286;SDS011;37364;46.974;18.916;2023-05-07T13:10:26;3.42;;;2.08;;
51286;SDS011;37364;46.974;18.916;2023-05-07T13:12:57;2.38;;;2.17;;
51286;SDS011;37364;46.974;18.916;2023-05-07T13:15:39;4.45;;;2.03;;
51286;SDS011;37364;46.974;18.916;2023-05-07T13:18:09;2.88;;;1.90;;
51286;SDS011;37364;46.974;18.916;2023-05-07T13:20:40;4.00;;;2.50;;
51286;SDS011;37364;46.974;18.916;2023-05-07T13:23:10;9.68;;;2.67;;
51286;SDS011;37364;46.974;18.916;2023-05-07T13:25:41;2.28;;;2.03;;
51286;SDS011;37364;46.974;18.916;2023-05-07T13:28:11;3.47;;;2.58;;
51286;SDS011;37364;46.974;18.916;2023-05-07T13:30:44;7.05;;;2.60;;
51286;SDS011;37364;46.974;18.916;2023-05-07T13:33:15;6.28;;;3.40;;
51286;SDS011;37364;46.974;18.916;2023-05-07T13:35:46;3.85;;;2.40;;
51286;SDS011;37364;46.974;18.916;2023-05-07T13:38:16;2.53;;;2.08;;
51286;SDS011;37364;46.974;18.916;2023-05-07T13:40:50;8.75;;;2.30;;
51286;SDS011;37364;46.974;18.916;2023-05-07T13:43:22;2.60;;;2.30;;
51286;SDS011;37364;46.974;18.916;2023-05-07T13:45:58;2.80;;;2.38;;
51286;SDS011;37364;46.974;18.916;2023-05-07T13:48:29;9.73;;;2.40;;
51286;SDS011;37364;46.974;18.916;2023-05-07T13:50:59;2.65;;;1.88;;
51286;SDS011;37364;46.974;18.916;2023-05-07T13:53:29;7.05;;;2.60;;
51286;SDS011;37364;46.974;18.916;2023-05-07T13:56:05;6.63;;;1.83;;
51286;SDS011;37364;46.974;18.916;2023-05-07T13:58:36;2.65;;;1.63;;
51286;SDS011;37364;46.974;18.916;2023-05-07T14:01:24;4.68;;;2.20;;
51286;SDS011;37364;46.974;18.916;2023-05-07T14:03:55;5.03;;;2.28;;
51286;SDS011;37364;46.974;18.916;2023-05-07T14:06:27;5.32;;;2.22;;
51286;SDS011;37364;46.974;18.916;2023-05-07T14:08:59;2.25;;;1.88;;
51286;SDS011;37364;46.974;18.916;2023-05-07T14:11:29;6.05;;;2.13;;
51286;SDS011;37364;46.974;18.916;2023-05-07T14:14:02;4.43;;;1.87;;
51286;SDS011;37364;46.974;18.916;2023-05-07T14:16:35;3.65;;;1.90;;
51286;SDS011;37364;46.974;18.916;2023-05-07T14:19:07;2.75;;;2.08;;
51286;SDS011;37364;46.974;18.916;2023-05-07T14:21:40;4.25;;;2.00;;
51286;SDS011;37364;46.974;18.916;2023-05-07T14:24:11;2.92;;;2.08;;
51286;SDS011;37364;46.974;18.916;2023-05-07T14:27:00;3.05;;;1.73;;
51286;SDS011;37364;46.974;18.916;2023-05-07T14:29:30;1.77;;;1.67;;
51286;SDS011;37364;46.974;18.916;2023-05-07T14:32:05;3.47;;;2.58;;
51286;SDS011;37364;46.974;18.916;2023-05-07T14:34:37;3.22;;;2.03;;
51286;SDS011;37364;46.974;18.916;2023-05-07T14:37:07;4.45;;;2.40;;
51286;SDS011;37364;46.974;18.916;2023-05-07T14:39:41;4.40;;;2.63;;
51286;SDS011;37364;46.974;18.916;2023-05-07T14:42:18;4.68;;;2.00;;
51286;SDS011;37364;46.974;18.916;2023-05-07T14:44:52;4.57;;;2.08;;
51286;SDS011;37364;46.974;18.916;2023-05-07T14:47:25;7.20;;;2.40;;
51286;SDS011;37364;46.974;18.916;2023-05-07T14:50:00;5.28;;;2.13;;
51286;SDS011;37364;46.974;18.916;2023-05-07T14:52:34;2.85;;;1.65;;
51286;SDS011;37364;46.974;18.916;2023-05-07T14:55:10;3.20;;;2.00;;
51286;SDS011;37364;46.974;18.916;2023-05-07T14:57:55;8.30;;;2.20;;
51286;SDS011;37364;46.974;18.916;2023-05-07T15:00:25;2.22;;;2.03;;
51286;SDS011;37364;46.974;18.916;2023-05-07T15:03:01;13.50;;;2.83;;
51286;SDS011;37364;46.974;18.916;2023-05-07T15:05:36;3.60;;;2.80;;
51286;SDS011;37364;46.974;18.916;2023-05-07T15:08:09;12.77;;;2.25;;
51286;SDS011;37364;46.974;18.916;2023-05-07T15:10:39;11.73;;;2.45;;
51286;SDS011;37364;46.974;18.916;2023-05-07T15:13:10;4.65;;;2.13;;
51286;SDS011;37364;46.974;18.916;2023-05-07T15:15:42;2.92;;;2.13;;
51286;SDS011;37364;46.974;18.916;2023-05-07T15:18:16;3.00;;;2.17;;
51286;SDS011;37364;46.974;18.916;2023-05-07T15:20:48;8.63;;;2.10;;